Seattle Tacoma International Airport
KSEA : now visible

Airfield :











YOU CAN JOIN US ON...

 
LOGIN :

Register | Disclaimer

   EN    FR    IT 

 









Legend :    VFR   Marginal VFR   IFR   Intensive IFR   Very Intensive IFR
Visi :
Ceiling :
>= 8 km
>= 3000ft
5 to 8 km
1000 to 3000 ft
1500m to 5 km
500 to 1000 ft
800 to 1500m
200 to 500 ft
< 800m
< 200 ft
Symbols :   Thunderstorms  Fog  Heavy snow  Heavy precipitations  Wind > 20 kt






- Airport Elevation : 433 ft
- IATA code : SEA


KSEA - Seattle Tacoma International

CURRENT METAR :
  • 151453Z 18005KT 7SM FEW019 BKN037 BKN049 04/03 A3012 RMK AO2 SLP207 T00440028 53013 $

EXPIRED METARs :
  • 151353Z 14004KT 10SM SCT019 BKN040 04/03 A3010 RMK AO2 SLP201 T00440028 $
  • 151253Z 13003KT 10SM BKN037 04/02 A3009 RMK AO2 SLP196 T00390022 $

TAF KSEA
Valid from the 15 at 14:00 until the 16 at 18:00 UTC


151402Z 1514/1618 16004KT P6SM VCSH SCT020 BKN040
TEMPO 1514/1518 -SHRA OVC020
FM151800 18005KT P6SM VCSH BKN025 OVC040
FM160000 18005KT P6SM FEW025 BKN050
FM160900 14004KT P6SM FEW025 SCT150 OVC200



MET'MAP, your aeronautical weather chart ! - Copyright ORBIFLY December 2007 - Disclaimer

ORBIFLY MET'MAP TEAM :

Programming & Development : Alexandra Zaïnal
Concept & original design : Baudouin d'Aumeries
Assistance for programming : Marc-Olivier Méhu
Technical & hardware support : Manuel Goepfert

Contact : metmap@orbifly.com




SOURCES & CREDITS :

   NOAA       Earth
Advisory